createdAt,value
2022-08-30T00:01:05.859Z,3.35
2022-08-30T00:03:42.695Z,2.85
2022-08-30T00:06:10.230Z,3.40
2022-08-30T00:08:37.774Z,3.13
2022-08-30T00:11:06.452Z,3.88
2022-08-30T00:13:33.134Z,3.47
2022-08-30T00:15:59.805Z,3.20
2022-08-30T00:18:26.727Z,3.00
2022-08-30T00:20:53.364Z,3.65
2022-08-30T00:23:20.276Z,3.40
2022-08-30T00:25:47.041Z,2.90
2022-08-30T00:28:15.006Z,4.20
2022-08-30T00:30:42.378Z,3.03
2022-08-30T00:33:09.548Z,3.50
2022-08-30T00:35:38.620Z,3.42
2022-08-30T00:38:06.000Z,4.05
2022-08-30T00:40:32.749Z,3.53
2022-08-30T00:43:02.245Z,3.75
2022-08-30T00:45:37.639Z,3.83
2022-08-30T00:48:05.956Z,3.30
2022-08-30T00:50:46.089Z,2.67
2022-08-30T00:53:21.708Z,3.47
2022-08-30T00:55:49.292Z,3.47
2022-08-30T00:58:22.056Z,3.78
2022-08-30T01:00:55.191Z,3.63
2022-08-30T01:03:21.949Z,3.45
2022-08-30T01:05:51.534Z,3.72
2022-08-30T01:08:22.105Z,4.43
2022-08-30T01:10:51.744Z,3.87
2022-08-30T01:13:19.725Z,3.95
2022-08-30T01:15:50.629Z,3.90
2022-08-30T01:18:18.895Z,3.67
2022-08-30T01:21:16.589Z,3.80
2022-08-30T01:23:46.207Z,4.05
2022-08-30T01:26:15.933Z,3.88
2022-08-30T01:28:47.519Z,4.28
2022-08-30T01:33:42.883Z,3.50
2022-08-30T01:36:13.116Z,3.40
2022-08-30T01:38:48.003Z,3.92
2022-08-30T01:41:14.573Z,3.85
2022-08-30T01:43:41.872Z,3.35
2022-08-30T01:46:11.036Z,3.05
2022-08-30T01:48:41.409Z,2.78
2022-08-30T01:51:15.247Z,3.17
2022-08-30T01:53:44.776Z,2.80
2022-08-30T01:56:13.394Z,2.67
2022-08-30T01:58:40.208Z,3.28
2022-08-30T02:01:12.615Z,2.95
2022-08-30T02:03:41.248Z,3.03
2022-08-30T02:06:11.964Z,2.95
2022-08-30T02:08:40.333Z,3.50
2022-08-30T02:11:07.390Z,3.85
2022-08-30T02:13:34.020Z,4.90
2022-08-30T02:16:00.733Z,4.20
2022-08-30T02:18:27.890Z,3.05
2022-08-30T02:20:54.563Z,3.55
2022-08-30T02:23:21.205Z,3.47
2022-08-30T02:25:47.823Z,3.97
2022-08-30T02:28:15.695Z,4.47
2022-08-30T02:30:45.973Z,3.08
2022-08-30T02:33:13.154Z,3.35
2022-08-30T02:35:39.855Z,3.20
2022-08-30T02:38:07.619Z,2.85
2022-08-30T02:40:34.834Z,3.55
2022-08-30T02:43:01.693Z,3.10
2022-08-30T02:45:28.782Z,3.35
2022-08-30T02:47:56.635Z,3.38
2022-08-30T02:50:24.657Z,2.97
2022-08-30T02:52:52.058Z,3.28
2022-08-30T02:55:20.943Z,3.33
2022-08-30T02:57:47.773Z,3.17
2022-08-30T03:00:17.609Z,3.13
2022-08-30T03:02:44.427Z,2.78
2022-08-30T03:05:12.985Z,3.05
2022-08-30T03:07:40.736Z,3.35
2022-08-30T03:10:07.898Z,3.33
2022-08-30T03:12:34.672Z,3.30
2022-08-30T03:15:02.002Z,3.63
2022-08-30T03:17:29.837Z,3.50
2022-08-30T03:19:56.498Z,3.33
2022-08-30T03:22:23.537Z,2.58
2022-08-30T03:24:50.171Z,2.83
2022-08-30T03:27:16.781Z,3.60
2022-08-30T03:29:43.447Z,3.20
2022-08-30T03:32:10.141Z,3.50
2022-08-30T03:34:36.798Z,2.92
2022-08-30T03:37:03.408Z,2.63
2022-08-30T03:39:30.054Z,3.88
2022-08-30T03:41:56.669Z,3.25
2022-08-30T03:44:23.568Z,3.20
2022-08-30T03:46:50.548Z,3.15
2022-08-30T03:49:18.016Z,3.58
2022-08-30T03:51:44.655Z,3.67
2022-08-30T03:54:11.323Z,3.60
2022-08-30T03:56:37.945Z,3.70
2022-08-30T03:59:05.260Z,4.22
2022-08-30T04:01:32.094Z,3.50
2022-08-30T04:03:58.854Z,4.20
2022-08-30T04:06:25.470Z,4.43
2022-08-30T04:08:52.075Z,5.03
2022-08-30T04:11:18.826Z,4.78
2022-08-30T04:13:45.490Z,4.53
2022-08-30T04:16:12.278Z,5.65
2022-08-30T04:18:38.965Z,4.68
2022-08-30T04:21:05.772Z,5.75
2022-08-30T04:23:32.495Z,5.00
2022-08-30T04:25:59.553Z,5.95
2022-08-30T04:28:26.220Z,5.35
2022-08-30T04:30:52.834Z,5.10
2022-08-30T04:33:19.530Z,6.68
2022-08-30T04:35:49.149Z,5.50
2022-08-30T04:38:17.212Z,5.75
2022-08-30T04:40:48.335Z,5.18
2022-08-30T04:43:16.352Z,5.70
2022-08-30T04:45:43.220Z,5.47
2022-08-30T04:48:10.411Z,4.60
2022-08-30T04:50:37.094Z,4.38
2022-08-30T04:53:12.063Z,4.50
2022-08-30T04:55:40.116Z,4.95
2022-08-30T04:58:06.806Z,5.30
2022-08-30T05:00:33.627Z,5.07
2022-08-30T05:03:00.530Z,4.88
2022-08-30T05:05:39.771Z,5.05
2022-08-30T05:08:12.416Z,5.25
2022-08-30T05:10:41.290Z,4.65
2022-08-30T05:13:08.591Z,5.28
2022-08-30T05:15:36.165Z,4.97
2022-08-30T05:18:04.141Z,4.40
2022-08-30T05:20:31.144Z,4.53
2022-08-30T05:22:57.751Z,4.22
2022-08-30T05:25:27.340Z,4.03
2022-08-30T05:27:54.708Z,3.65
2022-08-30T05:30:22.850Z,3.78
2022-08-30T05:32:49.939Z,3.22
2022-08-30T05:35:21.141Z,3.67
2022-08-30T05:37:50.848Z,3.78
2022-08-30T05:40:17.663Z,3.50
2022-08-30T05:42:46.041Z,3.70
2022-08-30T05:45:13.823Z,3.95
2022-08-30T05:47:41.207Z,3.47
2022-08-30T05:50:08.656Z,3.58
2022-08-30T05:52:40.049Z,3.88
2022-08-30T05:57:40.068Z,3.83
2022-08-30T06:00:11.924Z,3.83
2022-08-30T06:02:42.291Z,4.03
2022-08-30T06:05:10.917Z,4.80
2022-08-30T06:07:41.077Z,4.15
2022-08-30T06:10:08.058Z,4.53
2022-08-30T06:12:34.685Z,4.15
2022-08-30T06:15:01.290Z,4.20
2022-08-30T06:17:27.975Z,4.10
2022-08-30T06:19:54.606Z,4.00
2022-08-30T06:22:21.219Z,3.90
2022-08-30T06:24:57.590Z,4.50
2022-08-30T06:27:24.584Z,4.38
2022-08-30T06:29:52.336Z,3.80
2022-08-30T06:32:19.373Z,4.18
2022-08-30T06:34:45.956Z,4.43
2022-08-30T06:37:12.566Z,4.50
2022-08-30T06:39:57.521Z,3.78
2022-08-30T06:42:30.507Z,3.65
2022-08-30T06:44:58.268Z,4.03
2022-08-30T06:47:25.003Z,3.60
2022-08-30T06:49:51.609Z,3.28
2022-08-30T06:52:18.217Z,3.13
2022-08-30T06:54:45.947Z,3.95
2022-08-30T06:57:12.969Z,3.70
2022-08-30T06:59:40.305Z,3.58
2022-08-30T07:02:08.288Z,3.20
2022-08-30T07:04:35.026Z,3.35
2022-08-30T07:07:01.832Z,3.13
2022-08-30T07:09:28.576Z,2.67
2022-08-30T07:11:55.509Z,3.20
2022-08-30T07:14:22.948Z,3.10
2022-08-30T07:16:51.340Z,2.92
2022-08-30T07:19:21.074Z,2.90
2022-08-30T07:21:48.974Z,2.75
2022-08-30T07:24:16.967Z,3.00
2022-08-30T07:26:49.703Z,3.10
2022-08-30T07:29:17.672Z,2.75
2022-08-30T07:31:44.602Z,2.88
2022-08-30T07:34:11.242Z,3.33
2022-08-30T07:36:38.726Z,3.10
2022-08-30T07:39:06.712Z,2.80
2022-08-30T07:41:36.324Z,2.88
2022-08-30T07:44:03.355Z,3.08
2022-08-30T07:46:30.196Z,3.17
2022-08-30T07:48:58.975Z,2.60
2022-08-30T07:51:27.094Z,2.97
2022-08-30T07:53:55.392Z,3.25
2022-08-30T07:56:22.445Z,2.97
2022-08-30T07:58:49.918Z,3.20
2022-08-30T08:01:18.664Z,3.00
2022-08-30T08:03:46.977Z,3.30
2022-08-30T08:06:15.810Z,3.53
2022-08-30T08:08:45.347Z,3.03
2022-08-30T08:11:16.305Z,2.85
2022-08-30T08:13:53.252Z,3.10
2022-08-30T08:16:23.900Z,2.92
2022-08-30T08:18:51.702Z,3.17
2022-08-30T08:21:18.349Z,2.75
2022-08-30T08:23:45.056Z,3.08
2022-08-30T08:26:11.751Z,2.75
2022-08-30T08:28:40.172Z,3.17
2022-08-30T08:31:27.111Z,2.88
2022-08-30T08:36:30.520Z,3.15
2022-08-30T08:38:57.335Z,2.90
2022-08-30T08:41:32.293Z,2.90
2022-08-30T08:43:59.278Z,3.50
2022-08-30T08:47:05.315Z,2.92
2022-08-30T08:49:36.231Z,3.08
2022-08-30T08:52:24.065Z,3.42
2022-08-30T08:54:59.357Z,2.20
2022-08-30T08:57:35.910Z,2.50
2022-08-30T09:00:09.036Z,2.75
2022-08-30T09:02:47.873Z,2.72
2022-08-30T09:05:19.480Z,2.63
2022-08-30T09:07:55.252Z,2.22
2022-08-30T09:10:40.400Z,2.40
2022-08-30T09:13:13.541Z,2.30
2022-08-30T09:15:40.811Z,2.22
2022-08-30T09:21:06.919Z,2.30
2022-08-30T09:23:33.873Z,2.58
2022-08-30T09:26:07.188Z,2.47
2022-08-30T09:28:51.367Z,2.22
2022-08-30T09:31:24.892Z,2.72
2022-08-30T09:34:03.570Z,1.92
2022-08-30T09:36:34.313Z,2.25
2022-08-30T09:39:14.215Z,2.22
2022-08-30T09:41:43.733Z,2.47
2022-08-30T09:44:29.620Z,2.65
2022-08-30T09:46:58.713Z,2.08
2022-08-30T09:49:37.914Z,1.80
2022-08-30T09:52:38.623Z,2.00
2022-08-30T09:55:19.668Z,1.95
2022-08-30T09:57:56.635Z,1.65
2022-08-30T10:00:29.002Z,2.15
2022-08-30T10:03:13.959Z,2.25
2022-08-30T10:05:57.747Z,2.10
2022-08-30T10:08:47.018Z,2.30
2022-08-30T10:11:38.783Z,2.08
2022-08-30T10:14:23.902Z,2.10
2022-08-30T10:17:02.896Z,2.10
2022-08-30T10:19:52.175Z,2.47
2022-08-30T10:22:24.523Z,2.13
2022-08-30T10:24:59.522Z,2.00
2022-08-30T10:27:59.032Z,2.05
2022-08-30T10:30:27.922Z,2.35
2022-08-30T10:33:14.356Z,2.00
2022-08-30T10:35:48.563Z,1.92
2022-08-30T10:38:18.121Z,2.30
2022-08-30T10:41:08.731Z,2.50
2022-08-30T10:44:03.153Z,2.13
2022-08-30T10:46:33.660Z,1.92
2022-08-30T10:49:04.397Z,2.40
2022-08-30T10:51:40.508Z,2.08
2022-08-30T10:54:18.667Z,2.63
2022-08-30T10:56:51.358Z,1.77
2022-08-30T10:59:19.462Z,1.98
2022-08-30T11:02:08.416Z,1.88
2022-08-30T11:05:13.582Z,2.30
2022-08-30T11:07:47.559Z,1.73
2022-08-30T11:10:19.889Z,1.80
2022-08-30T11:13:09.720Z,2.20
2022-08-30T11:15:55.551Z,1.83
2022-08-30T11:18:23.468Z,1.90
2022-08-30T11:20:53.723Z,2.10
2022-08-30T11:26:15.968Z,2.30
2022-08-30T11:28:47.192Z,2.05
2022-08-30T11:31:23.595Z,1.77
2022-08-30T11:34:00.982Z,1.70
2022-08-30T11:36:37.483Z,2.15
2022-08-30T11:39:10.330Z,2.50
2022-08-30T11:41:42.488Z,2.28
2022-08-30T11:44:22.160Z,2.72
2022-08-30T11:46:50.598Z,2.10
2022-08-30T11:49:19.943Z,2.00
2022-08-30T11:52:27.136Z,2.13
2022-08-30T11:54:54.372Z,1.73
2022-08-30T11:57:57.574Z,1.88
2022-08-30T12:00:28.666Z,2.47
2022-08-30T12:02:56.159Z,1.70
2022-08-30T12:05:40.998Z,2.00
2022-08-30T12:08:34.624Z,1.80
2022-08-30T12:11:05.381Z,1.60
2022-08-30T12:13:35.377Z,2.10
2022-08-30T12:16:05.243Z,2.20
2022-08-30T12:18:48.751Z,2.15
2022-08-30T12:21:22.253Z,2.13
2022-08-30T12:24:16.178Z,1.85
2022-08-30T12:26:46.196Z,1.98
2022-08-30T12:29:14.326Z,1.70
2022-08-30T12:31:46.452Z,1.85
2022-08-30T12:34:19.589Z,1.95
2022-08-30T12:36:54.538Z,2.25
2022-08-30T12:39:32.153Z,1.85
2022-08-30T12:42:17.849Z,1.90
2022-08-30T12:44:45.654Z,1.80
2022-08-30T12:47:14.689Z,1.92
2022-08-30T12:49:42.231Z,1.80
2022-08-30T12:52:18.946Z,1.80
2022-08-30T12:54:46.304Z,2.10
2022-08-30T12:57:34.464Z,1.98
2022-08-30T13:00:02.023Z,2.55
2022-08-30T13:02:43.339Z,1.98
2022-08-30T13:05:32.615Z,1.67
2022-08-30T13:08:16.595Z,1.85
2022-08-30T13:11:23.087Z,2.30
2022-08-30T13:13:55.495Z,2.00
2022-08-30T13:16:29.237Z,1.70
2022-08-30T13:19:23.055Z,2.05
2022-08-30T13:21:55.197Z,2.20
2022-08-30T13:24:25.499Z,2.10
2022-08-30T13:26:55.680Z,2.00
2022-08-30T13:29:26.370Z,1.80
2022-08-30T13:31:53.727Z,2.00
2022-08-30T13:34:22.500Z,2.38
2022-08-30T13:36:57.863Z,2.20
2022-08-30T13:39:24.838Z,1.85
2022-08-30T13:41:52.323Z,2.28
2022-08-30T13:44:19.592Z,1.70
2022-08-30T13:46:54.401Z,2.10
2022-08-30T13:52:21.829Z,1.90
2022-08-30T13:54:51.641Z,1.83
2022-08-30T14:00:12.272Z,2.00
2022-08-30T14:02:46.327Z,1.80
2022-08-30T14:05:37.690Z,1.95
2022-08-30T14:08:02.575Z,2.00
2022-08-30T14:10:31.427Z,2.00
2022-08-30T14:13:07.936Z,2.00
2022-08-30T14:15:38.724Z,1.75
2022-08-30T14:18:07.248Z,1.63
2022-08-30T14:20:48.828Z,2.03
2022-08-30T14:23:15.882Z,1.60
2022-08-30T14:25:42.635Z,2.00
2022-08-30T14:28:09.560Z,1.88
2022-08-30T14:30:37.334Z,2.33
2022-08-30T14:33:04.067Z,2.13
2022-08-30T14:35:31.155Z,1.90
2022-08-30T14:37:58.543Z,1.85
2022-08-30T14:40:26.129Z,2.05
2022-08-30T14:42:53.305Z,1.92
2022-08-30T14:45:20.129Z,1.63
2022-08-30T14:47:46.894Z,1.90
2022-08-30T14:50:14.324Z,1.92
2022-08-30T14:52:41.148Z,1.98
2022-08-30T14:55:13.170Z,1.98
2022-08-30T14:57:40.845Z,2.08
2022-08-30T15:00:11.620Z,1.95
2022-08-30T15:02:38.344Z,1.73
2022-08-30T15:05:06.950Z,2.13
2022-08-30T15:07:35.966Z,2.25
2022-08-30T15:10:05.155Z,1.95
2022-08-30T15:12:31.885Z,1.70
2022-08-30T15:14:58.940Z,2.05
2022-08-30T15:17:25.969Z,2.38
2022-08-30T15:19:53.094Z,2.08
2022-08-30T15:22:20.151Z,1.60
2022-08-30T15:24:49.054Z,1.75
2022-08-30T15:27:18.005Z,1.70
2022-08-30T15:29:44.932Z,1.80
2022-08-30T15:32:11.756Z,2.00
2022-08-30T15:34:40.071Z,1.98
2022-08-30T15:37:07.827Z,2.00
2022-08-30T15:39:34.910Z,1.58
2022-08-30T15:42:01.996Z,1.60
2022-08-30T15:44:31.049Z,2.38
2022-08-30T15:46:58.312Z,1.80
2022-08-30T15:49:25.328Z,1.63
2022-08-30T15:51:54.011Z,1.98
2022-08-30T15:54:23.890Z,1.63
2022-08-30T15:56:58.889Z,1.87
2022-08-30T15:59:30.305Z,2.00
2022-08-30T16:01:58.133Z,1.80
2022-08-30T16:04:25.560Z,1.75
2022-08-30T16:06:52.627Z,2.00
2022-08-30T16:09:19.396Z,1.50
2022-08-30T16:11:46.205Z,1.65
2022-08-30T16:14:13.634Z,1.95
2022-08-30T16:16:42.032Z,1.90
2022-08-30T16:19:09.659Z,1.92
2022-08-30T16:21:37.980Z,1.70
2022-08-30T16:24:06.388Z,1.77
2022-08-30T16:26:35.014Z,2.08
2022-08-30T16:29:03.178Z,1.83
2022-08-30T16:31:31.090Z,1.75
2022-08-30T16:34:02.853Z,2.08
2022-08-30T16:36:32.112Z,1.50
2022-08-30T16:38:59.650Z,2.03
2022-08-30T16:41:26.605Z,1.70
2022-08-30T16:43:54.227Z,2.10
2022-08-30T16:46:27.220Z,1.92
2022-08-30T16:48:57.332Z,1.70
2022-08-30T16:51:26.434Z,2.15
2022-08-30T16:53:55.913Z,1.70
2022-08-30T16:56:26.900Z,1.88
2022-08-30T16:59:01.311Z,2.20
2022-08-30T17:01:44.022Z,2.08
2022-08-30T17:04:13.803Z,1.90
2022-08-30T17:06:45.739Z,2.13
2022-08-30T17:09:15.012Z,2.17
2022-08-30T17:11:42.653Z,1.90
2022-08-30T17:14:09.566Z,2.03
2022-08-30T17:16:37.175Z,1.70
2022-08-30T17:19:05.424Z,2.00
2022-08-30T17:21:32.427Z,1.92
2022-08-30T17:24:02.538Z,1.98
2022-08-30T17:26:34.891Z,2.33
2022-08-30T17:29:02.394Z,1.70
2022-08-30T17:31:30.537Z,2.35
2022-08-30T17:34:03.135Z,2.20
2022-08-30T17:36:32.484Z,1.77
2022-08-30T17:38:59.182Z,1.90
2022-08-30T17:41:25.807Z,1.48
2022-08-30T17:43:53.826Z,2.30
2022-08-30T17:46:20.984Z,1.98
2022-08-30T17:48:47.720Z,1.88
2022-08-30T17:51:24.564Z,1.98
2022-08-30T17:53:51.223Z,2.30
2022-08-30T17:56:18.877Z,2.08
2022-08-30T17:58:47.427Z,2.00
2022-08-30T18:01:15.456Z,1.77
2022-08-30T18:03:45.885Z,2.05
2022-08-30T18:06:13.840Z,2.25
2022-08-30T18:08:40.709Z,2.45
2022-08-30T18:11:07.462Z,1.88
2022-08-30T18:13:34.574Z,1.65
2022-08-30T18:16:04.429Z,2.30
2022-08-30T18:20:59.266Z,1.70
2022-08-30T18:23:27.506Z,2.28
2022-08-30T18:26:03.282Z,2.00
2022-08-30T18:28:30.058Z,2.08
2022-08-30T18:30:57.051Z,2.35
2022-08-30T18:33:28.024Z,2.20
2022-08-30T18:35:56.256Z,2.33
2022-08-30T18:38:24.467Z,2.25
2022-08-30T18:40:52.938Z,2.30
2022-08-30T18:43:24.660Z,2.33
2022-08-30T18:46:01.070Z,2.28
2022-08-30T18:48:28.145Z,2.40
2022-08-30T18:50:54.765Z,2.38
2022-08-30T18:53:28.442Z,1.92
2022-08-30T18:55:57.551Z,2.88
2022-08-30T18:58:24.234Z,2.20
2022-08-30T19:00:51.196Z,2.40
2022-08-30T19:03:18.808Z,2.05
2022-08-30T19:05:46.035Z,2.40
2022-08-30T19:08:13.775Z,2.78
2022-08-30T19:10:41.060Z,1.63
2022-08-30T19:13:08.614Z,2.55
2022-08-30T19:15:36.060Z,2.30
2022-08-30T19:18:16.649Z,2.53
2022-08-30T19:20:45.774Z,2.70
2022-08-30T19:23:14.521Z,2.03
2022-08-30T19:25:42.208Z,2.63
2022-08-30T19:28:10.272Z,2.30
2022-08-30T19:30:37.320Z,2.53
2022-08-30T19:33:04.085Z,2.67
2022-08-30T19:35:32.571Z,2.70
2022-08-30T19:38:00.133Z,2.33
2022-08-30T19:40:28.686Z,2.90
2022-08-30T19:42:55.507Z,2.95
2022-08-30T19:45:22.990Z,2.70
2022-08-30T19:47:50.724Z,2.22
2022-08-30T19:50:18.264Z,3.05
2022-08-30T19:52:51.055Z,2.63
2022-08-30T19:55:23.836Z,2.95
2022-08-30T19:57:56.335Z,3.30
2022-08-30T20:00:23.539Z,3.28
2022-08-30T20:02:51.458Z,2.65
2022-08-30T20:05:19.173Z,3.28
2022-08-30T20:07:48.082Z,2.50
2022-08-30T20:10:19.887Z,2.90
2022-08-30T20:12:50.196Z,3.00
2022-08-30T20:15:18.036Z,3.37
2022-08-30T20:18:03.260Z,2.63
2022-08-30T20:20:33.493Z,3.42
2022-08-30T20:23:03.088Z,3.08
2022-08-30T20:25:30.763Z,2.90
2022-08-30T20:27:57.466Z,2.60
2022-08-30T20:30:24.111Z,2.58
2022-08-30T20:32:52.561Z,2.55
2022-08-30T20:35:19.656Z,3.13
2022-08-30T20:37:46.663Z,2.28
2022-08-30T20:40:16.052Z,3.05
2022-08-30T20:42:46.759Z,2.60
2022-08-30T20:45:16.488Z,3.10
2022-08-30T20:47:43.426Z,2.50
2022-08-30T20:50:16.550Z,2.85
2022-08-30T20:52:43.768Z,3.25
2022-08-30T20:55:12.125Z,3.30
2022-08-30T20:57:39.497Z,3.40
2022-08-30T21:00:10.942Z,3.03
2022-08-30T21:02:46.415Z,2.95
2022-08-30T21:05:15.557Z,2.75
2022-08-30T21:07:43.816Z,2.85
2022-08-30T21:10:11.995Z,2.83
2022-08-30T21:12:39.075Z,3.10
2022-08-30T21:15:33.976Z,2.97
2022-08-30T21:17:53.760Z,3.22
2022-08-30T21:20:20.527Z,3.63
2022-08-30T21:22:47.626Z,2.95
2022-08-30T21:25:14.523Z,3.70
2022-08-30T21:27:42.465Z,4.13
2022-08-30T21:30:10.314Z,4.18
2022-08-30T21:32:36.959Z,3.25
2022-08-30T21:35:22.412Z,3.72
2022-08-30T21:37:49.035Z,3.53
2022-08-30T21:40:17.149Z,3.28
2022-08-30T21:42:45.936Z,3.42
2022-08-30T21:45:13.744Z,3.42
2022-08-30T21:47:40.365Z,3.83
2022-08-30T21:50:07.311Z,3.42
2022-08-30T21:52:36.170Z,3.72
2022-08-30T21:55:03.753Z,2.78
2022-08-30T21:57:31.205Z,3.67
2022-08-30T21:59:57.775Z,3.72
2022-08-30T22:02:24.492Z,3.00
2022-08-30T22:04:51.151Z,3.28
2022-08-30T22:07:17.823Z,2.95
2022-08-30T22:09:44.561Z,3.45
2022-08-30T22:12:11.180Z,3.33
2022-08-30T22:14:38.218Z,3.85
2022-08-30T22:17:05.498Z,3.28
2022-08-30T22:19:33.848Z,3.53
2022-08-30T22:22:01.775Z,3.50
2022-08-30T22:24:32.423Z,3.28
2022-08-30T22:27:00.947Z,3.08
2022-08-30T22:29:29.252Z,3.40
2022-08-30T22:31:55.961Z,3.35
2022-08-30T22:34:23.099Z,3.22
2022-08-30T22:36:49.735Z,3.55
2022-08-30T22:39:16.511Z,3.78
2022-08-30T22:41:44.232Z,3.83
2022-08-30T22:44:11.821Z,3.75
2022-08-30T22:46:38.830Z,4.03
2022-08-30T22:49:08.772Z,3.63
2022-08-30T22:51:35.871Z,3.80
2022-08-30T22:54:04.423Z,4.22
2022-08-30T22:56:34.249Z,3.92
2022-08-30T22:59:03.981Z,4.28
2022-08-30T23:01:37.149Z,5.07
2022-08-30T23:04:05.908Z,4.20
2022-08-30T23:06:32.931Z,4.82
2022-08-30T23:08:59.949Z,4.57
2022-08-30T23:11:27.008Z,4.35
2022-08-30T23:13:53.901Z,4.70
2022-08-30T23:16:21.514Z,4.03
2022-08-30T23:18:48.527Z,3.92
2022-08-30T23:21:25.249Z,3.50
2022-08-30T23:24:12.296Z,4.22
2022-08-30T23:26:58.849Z,3.60
2022-08-30T23:29:44.143Z,4.60
2022-08-30T23:32:29.825Z,4.30
2022-08-30T23:35:15.558Z,4.47
2022-08-30T23:38:00.879Z,5.15
2022-08-30T23:40:46.728Z,4.60
2022-08-30T23:43:32.075Z,4.68
2022-08-30T23:46:19.390Z,5.32
2022-08-30T23:49:09.475Z,4.70
2022-08-30T23:51:56.683Z,4.97
2022-08-30T23:54:43.621Z,4.97
2022-08-30T23:57:28.953Z,4.80
